createdAt,value
2022-08-18T00:03:00.475Z,0.00
2022-08-18T00:17:49.188Z,0.00
2022-08-18T00:32:49.423Z,0.00
2022-08-18T00:47:49.430Z,0.00
2022-08-18T01:02:49.518Z,0.00
2022-08-18T01:17:49.742Z,0.00
2022-08-18T01:32:51.018Z,0.00
2022-08-18T01:47:53.089Z,0.00
2022-08-18T02:02:58.657Z,0.00
2022-08-18T02:17:58.300Z,0.00
2022-08-18T02:32:58.411Z,0.00
2022-08-18T02:47:58.993Z,0.00
2022-08-18T03:02:59.602Z,0.00
2022-08-18T03:18:00.143Z,0.00
2022-08-18T03:33:00.421Z,12.00
2022-08-18T03:48:00.331Z,72.00
2022-08-18T04:03:00.482Z,228.00
2022-08-18T04:18:03.351Z,612.00
2022-08-18T04:33:04.624Z,1184.00
2022-08-18T04:48:04.705Z,1820.00
2022-08-18T05:03:04.828Z,2512.00
2022-08-18T05:18:08.050Z,3012.00
2022-08-18T05:33:13.113Z,4128.00
2022-08-18T05:48:13.215Z,4696.00
2022-08-18T06:03:13.425Z,5024.00
2022-08-18T06:18:13.410Z,5684.00
2022-08-18T06:33:13.523Z,4992.00
2022-08-18T06:48:15.695Z,5584.00
2022-08-18T07:03:15.935Z,5868.00
2022-08-18T07:18:16.052Z,6284.00
2022-08-18T07:33:16.112Z,7516.00
2022-08-18T07:48:37.054Z,8452.00
2022-08-18T08:03:21.287Z,8872.00
2022-08-18T08:18:21.352Z,9028.00
2022-08-18T08:33:21.423Z,8620.00
2022-08-18T08:48:21.524Z,10132.00
2022-08-18T09:03:30.198Z,12440.00
2022-08-18T09:18:27.214Z,18816.00
2022-08-18T09:33:27.920Z,17216.00
2022-08-18T09:48:28.671Z,18080.00
2022-08-18T10:03:31.525Z,24736.00
2022-08-18T10:18:32.067Z,40544.00
2022-08-18T10:33:32.147Z,36672.00
2022-08-18T10:48:33.495Z,42336.00
2022-08-18T11:18:43.009Z,55264.00
2022-08-18T11:33:43.757Z,31808.00
2022-08-18T11:48:51.861Z,54304.00
2022-08-18T12:03:50.185Z,62688.00
2022-08-18T12:18:50.434Z,80704.00
2022-08-18T12:33:59.939Z,77152.00
2022-08-18T12:48:58.744Z,74176.00
2022-08-18T13:19:06.089Z,29984.00
2022-08-18T13:34:15.203Z,13824.00
2022-08-18T13:49:13.543Z,11028.00
2022-08-18T14:04:20.590Z,18240.00
2022-08-18T14:19:22.729Z,68992.00
2022-08-18T14:34:28.510Z,64960.00
2022-08-18T14:49:29.106Z,52576.00
2022-08-18T15:04:29.929Z,27456.00
2022-08-18T15:19:58.554Z,28736.00
2022-08-18T15:34:46.653Z,20608.00
2022-08-18T15:49:42.339Z,8972.00
2022-08-18T16:04:43.140Z,5636.00
2022-08-18T16:19:44.998Z,5552.00
2022-08-18T16:34:46.087Z,4476.00
2022-08-18T16:49:46.264Z,1100.00
2022-08-18T17:04:46.261Z,492.00
2022-08-18T17:19:46.349Z,492.00
2022-08-18T17:34:46.491Z,444.00
2022-08-18T17:49:46.834Z,312.00
2022-08-18T18:04:48.980Z,172.00
2022-08-18T18:19:48.800Z,72.00
2022-08-18T18:34:49.325Z,28.00
2022-08-18T18:49:49.453Z,4.00
2022-08-18T19:04:50.870Z,0.00
2022-08-18T19:19:54.574Z,0.00
2022-08-18T19:34:55.826Z,0.00
2022-08-18T19:49:56.943Z,0.00
2022-08-18T20:04:57.878Z,0.00
2022-08-18T20:20:00.089Z,0.00
2022-08-18T20:35:00.189Z,0.00
2022-08-18T20:49:59.757Z,0.00
2022-08-18T21:05:01.611Z,0.00
2022-08-18T21:20:01.676Z,0.00
2022-08-18T21:35:02.274Z,0.00
2022-08-18T21:50:01.869Z,0.00
2022-08-18T22:05:02.191Z,0.00
2022-08-18T22:20:03.744Z,0.00
2022-08-18T22:35:05.207Z,0.00
2022-08-18T22:50:05.625Z,0.00
2022-08-18T23:05:05.970Z,0.00
2022-08-18T23:20:06.367Z,0.00
2022-08-18T23:35:11.631Z,0.00
2022-08-18T23:50:11.268Z,0.00
